sensor_id;sensor_type;location;lat;lon;timestamp;pressure;altitude;pressure_sealevel;temperature;humidity
68433;BME280;55412;51.350;17.056;2024-01-11T00:00:15;101640.56;;;-9.16;78.41
68433;BME280;55412;51.350;17.056;2024-01-11T00:02:41;101632.72;;;-9.20;78.12
68433;BME280;55412;51.350;17.056;2024-01-11T00:05:07;101631.53;;;-9.23;78.16
68433;BME280;55412;51.350;17.056;2024-01-11T00:07:33;101630.66;;;-9.24;78.02
68433;BME280;55412;51.350;17.056;2024-01-11T00:10:00;101636.25;;;-9.26;78.73
68433;BME280;55412;51.350;17.056;2024-01-11T00:12:26;101648.81;;;-9.26;78.24
68433;BME280;55412;51.350;17.056;2024-01-11T00:14:52;101632.72;;;-9.28;78.16
68433;BME280;55412;51.350;17.056;2024-01-11T00:17:18;101625.03;;;-9.30;78.25
68433;BME280;55412;51.350;17.056;2024-01-11T00:19:44;101626.81;;;-9.37;78.54
68433;BME280;55412;51.350;17.056;2024-01-11T00:22:09;101630.97;;;-9.47;77.85
68433;BME280;55412;51.350;17.056;2024-01-11T00:24:35;101625.00;;;-9.56;78.53
68433;BME280;55412;51.350;17.056;2024-01-11T00:27:01;101630.16;;;-9.63;78.21
68433;BME280;55412;51.350;17.056;2024-01-11T00:29:27;101636.97;;;-9.70;78.53
68433;BME280;55412;51.350;17.056;2024-01-11T00:31:54;101632.06;;;-9.78;77.72
68433;BME280;55412;51.350;17.056;2024-01-11T00:34:20;101624.84;;;-9.83;78.24
68433;BME280;55412;51.350;17.056;2024-01-11T00:36:47;101621.28;;;-9.85;77.98
68433;BME280;55412;51.350;17.056;2024-01-11T00:39:12;101611.69;;;-9.89;79.01
68433;BME280;55412;51.350;17.056;2024-01-11T00:41:38;101606.94;;;-9.95;78.94
68433;BME280;55412;51.350;17.056;2024-01-11T00:44:04;101596.41;;;-9.99;78.53
68433;BME280;55412;51.350;17.056;2024-01-11T00:46:29;101587.72;;;-10.03;79.11
68433;BME280;55412;51.350;17.056;2024-01-11T00:48:55;101581.50;;;-10.07;78.07
68433;BME280;55412;51.350;17.056;2024-01-11T00:51:21;101597.75;;;-10.03;79.41
68433;BME280;55412;51.350;17.056;2024-01-11T00:53:46;101600.88;;;-10.06;78.55
68433;BME280;55412;51.350;17.056;2024-01-11T00:56:19;101606.78;;;-10.05;79.24
68433;BME280;55412;51.350;17.056;2024-01-11T00:58:45;101603.78;;;-10.10;78.78
68433;BME280;55412;51.350;17.056;2024-01-11T01:01:11;101605.88;;;-10.06;79.04
68433;BME280;55412;51.350;17.056;2024-01-11T01:03:37;101601.44;;;-10.08;78.56
68433;BME280;55412;51.350;17.056;2024-01-11T01:06:03;101591.09;;;-10.11;79.01
68433;BME280;55412;51.350;17.056;2024-01-11T01:08:30;101583.56;;;-10.11;78.74
68433;BME280;55412;51.350;17.056;2024-01-11T01:10:55;101585.19;;;-10.12;79.84
68433;BME280;55412;51.350;17.056;2024-01-11T01:13:21;101577.34;;;-10.15;79.09
68433;BME280;55412;51.350;17.056;2024-01-11T01:15:47;101570.13;;;-10.12;79.57
68433;BME280;55412;51.350;17.056;2024-01-11T01:18:12;101573.38;;;-10.13;79.44
68433;BME280;55412;51.350;17.056;2024-01-11T01:20:38;101572.19;;;-10.08;78.88
68433;BME280;55412;51.350;17.056;2024-01-11T01:23:04;101584.19;;;-10.05;79.76
68433;BME280;55412;51.350;17.056;2024-01-11T01:25:30;101577.94;;;-10.09;78.67
68433;BME280;55412;51.350;17.056;2024-01-11T01:27:55;101577.66;;;-10.12;78.27
68433;BME280;55412;51.350;17.056;2024-01-11T01:30:22;101579.13;;;-10.22;78.77
68433;BME280;55412;51.350;17.056;2024-01-11T01:32:48;101585.75;;;-10.23;79.33
68433;BME280;55412;51.350;17.056;2024-01-11T01:35:14;101593.00;;;-10.26;78.28
68433;BME280;55412;51.350;17.056;2024-01-11T01:37:40;101612.19;;;-10.26;79.47
68433;BME280;55412;51.350;17.056;2024-01-11T01:40:06;101594.47;;;-10.28;79.76
68433;BME280;55412;51.350;17.056;2024-01-11T01:42:33;101599.66;;;-10.26;79.77
68433;BME280;55412;51.350;17.056;2024-01-11T01:44:59;101597.69;;;-10.29;78.45
68433;BME280;55412;51.350;17.056;2024-01-11T01:47:26;101594.91;;;-10.32;79.34
68433;BME280;55412;51.350;17.056;2024-01-11T01:49:53;101594.75;;;-10.34;78.58
68433;BME280;55412;51.350;17.056;2024-01-11T01:52:20;101592.09;;;-10.35;79.54
68433;BME280;55412;51.350;17.056;2024-01-11T01:54:48;101581.31;;;-10.34;79.60
68433;BME280;55412;51.350;17.056;2024-01-11T01:57:16;101585.75;;;-10.32;79.55
68433;BME280;55412;51.350;17.056;2024-01-11T01:59:45;101569.81;;;-10.32;79.42
68433;BME280;55412;51.350;17.056;2024-01-11T02:02:11;101569.94;;;-10.31;79.06
68433;BME280;55412;51.350;17.056;2024-01-11T02:04:37;101573.81;;;-10.25;79.28
68433;BME280;55412;51.350;17.056;2024-01-11T02:07:04;101573.97;;;-10.24;79.43
68433;BME280;55412;51.350;17.056;2024-01-11T02:09:30;101568.94;;;-10.24;78.78
68433;BME280;55412;51.350;17.056;2024-01-11T02:11:56;101560.06;;;-10.29;78.98
68433;BME280;55412;51.350;17.056;2024-01-11T02:14:22;101561.25;;;-10.25;79.16
68433;BME280;55412;51.350;17.056;2024-01-11T02:16:47;101548.84;;;-10.24;78.89
68433;BME280;55412;51.350;17.056;2024-01-11T02:19:14;101556.38;;;-10.15;79.90
68433;BME280;55412;51.350;17.056;2024-01-11T02:21:44;101555.50;;;-10.07;79.78
68433;BME280;55412;51.350;17.056;2024-01-11T02:24:11;101537.97;;;-9.98;80.16
68433;BME280;55412;51.350;17.056;2024-01-11T02:26:58;101529.69;;;-9.89;79.71
68433;BME280;55412;51.350;17.056;2024-01-11T02:29:25;101507.38;;;-9.86;79.46
68433;BME280;55412;51.350;17.056;2024-01-11T02:31:51;101497.91;;;-9.80;80.58
68433;BME280;55412;51.350;17.056;2024-01-11T02:34:17;101496.28;;;-9.70;80.49
68433;BME280;55412;51.350;17.056;2024-01-11T02:36:43;101496.72;;;-9.57;79.57
68433;BME280;55412;51.350;17.056;2024-01-11T02:39:09;101488.72;;;-9.44;80.73
68433;BME280;55412;51.350;17.056;2024-01-11T02:41:37;101482.06;;;-9.35;80.42
68433;BME280;55412;51.350;17.056;2024-01-11T02:44:03;101481.84;;;-9.20;80.05
68433;BME280;55412;51.350;17.056;2024-01-11T02:46:29;101485.09;;;-9.12;79.83
68433;BME280;55412;51.350;17.056;2024-01-11T02:48:55;101472.78;;;-9.00;80.40
68433;BME280;55412;51.350;17.056;2024-01-11T02:51:21;101472.13;;;-8.89;80.42
68433;BME280;55412;51.350;17.056;2024-01-11T02:53:47;101455.53;;;-8.78;80.41
68433;BME280;55412;51.350;17.056;2024-01-11T02:56:12;101462.91;;;-8.71;79.90
68433;BME280;55412;51.350;17.056;2024-01-11T02:58:38;101480.59;;;-8.61;79.90
68433;BME280;55412;51.350;17.056;2024-01-11T03:01:04;101476.88;;;-8.56;79.93
68433;BME280;55412;51.350;17.056;2024-01-11T03:03:29;101467.25;;;-8.51;79.85
68433;BME280;55412;51.350;17.056;2024-01-11T03:05:55;101477.25;;;-8.43;79.88
68433;BME280;55412;51.350;17.056;2024-01-11T03:08:21;101479.16;;;-8.40;80.15
68433;BME280;55412;51.350;17.056;2024-01-11T03:10:46;101503.22;;;-8.33;79.40
68433;BME280;55412;51.350;17.056;2024-01-11T03:13:12;101502.75;;;-8.29;79.98
68433;BME280;55412;51.350;17.056;2024-01-11T03:15:38;101506.28;;;-8.27;79.72
68433;BME280;55412;51.350;17.056;2024-01-11T03:18:04;101512.09;;;-8.28;79.91
68433;BME280;55412;51.350;17.056;2024-01-11T03:20:30;101522.28;;;-8.27;78.90
68433;BME280;55412;51.350;17.056;2024-01-11T03:22:55;101523.84;;;-8.38;78.71
68433;BME280;55412;51.350;17.056;2024-01-11T03:25:21;101530.16;;;-8.51;78.70
68433;BME280;55412;51.350;17.056;2024-01-11T03:27:47;101541.59;;;-8.64;78.72
68433;BME280;55412;51.350;17.056;2024-01-11T03:30:13;101545.34;;;-8.77;78.60
68433;BME280;55412;51.350;17.056;2024-01-11T03:32:39;101540.78;;;-8.90;78.33
68433;BME280;55412;51.350;17.056;2024-01-11T03:35:08;101533.41;;;-8.97;78.40
68433;BME280;55412;51.350;17.056;2024-01-11T03:37:34;101525.28;;;-9.03;79.12
68433;BME280;55412;51.350;17.056;2024-01-11T03:40:00;101512.31;;;-9.08;79.26
68433;BME280;55412;51.350;17.056;2024-01-11T03:42:26;101537.28;;;-9.01;79.38
68433;BME280;55412;51.350;17.056;2024-01-11T03:44:52;101541.56;;;-9.00;78.83
68433;BME280;55412;51.350;17.056;2024-01-11T03:47:18;101538.31;;;-8.99;79.68
68433;BME280;55412;51.350;17.056;2024-01-11T03:49:44;101525.88;;;-8.97;79.92
68433;BME280;55412;51.350;17.056;2024-01-11T03:52:09;101520.25;;;-8.95;80.06
68433;BME280;55412;51.350;17.056;2024-01-11T03:54:35;101509.59;;;-8.92;79.45
68433;BME280;55412;51.350;17.056;2024-01-11T03:57:01;101515.06;;;-8.87;80.00
68433;BME280;55412;51.350;17.056;2024-01-11T03:59:27;101502.75;;;-8.84;80.23
68433;BME280;55412;51.350;17.056;2024-01-11T04:01:53;101501.44;;;-8.81;79.91
68433;BME280;55412;51.350;17.056;2024-01-11T04:04:19;101491.63;;;-8.78;80.07
68433;BME280;55412;51.350;17.056;2024-01-11T04:06:45;101504.03;;;-8.71;79.87
68433;BME280;55412;51.350;17.056;2024-01-11T04:09:10;101513.91;;;-8.64;79.94
68433;BME280;55412;51.350;17.056;2024-01-11T04:11:36;101519.22;;;-8.60;79.73
68433;BME280;55412;51.350;17.056;2024-01-11T04:14:02;101524.44;;;-8.59;79.43
68433;BME280;55412;51.350;17.056;2024-01-11T04:16:28;101505.31;;;-8.57;79.43
68433;BME280;55412;51.350;17.056;2024-01-11T04:18:54;101498.91;;;-8.53;79.24
68433;BME280;55412;51.350;17.056;2024-01-11T04:21:24;101490.28;;;-8.47;79.73
68433;BME280;55412;51.350;17.056;2024-01-11T04:23:50;101478.25;;;-8.41;79.53
68433;BME280;55412;51.350;17.056;2024-01-11T04:26:17;101490.88;;;-8.22;79.96
68433;BME280;55412;51.350;17.056;2024-01-11T04:28:47;101490.03;;;-8.12;80.11
68433;BME280;55412;51.350;17.056;2024-01-11T04:31:14;101489.22;;;-8.02;80.05
68433;BME280;55412;51.350;17.056;2024-01-11T04:33:41;101483.53;;;-7.91;79.77
68433;BME280;55412;51.350;17.056;2024-01-11T04:36:09;101479.56;;;-7.79;80.18
68433;BME280;55412;51.350;17.056;2024-01-11T04:38:36;101466.28;;;-7.68;80.13
68433;BME280;55412;51.350;17.056;2024-01-11T04:41:12;101450.59;;;-7.55;79.95
68433;BME280;55412;51.350;17.056;2024-01-11T04:43:44;101462.59;;;-7.42;79.94
68433;BME280;55412;51.350;17.056;2024-01-11T04:46:16;101442.88;;;-7.28;80.13
68433;BME280;55412;51.350;17.056;2024-01-11T04:48:42;101451.38;;;-7.17;79.97
68433;BME280;55412;51.350;17.056;2024-01-11T04:51:08;101428.19;;;-7.03;80.04
68433;BME280;55412;51.350;17.056;2024-01-11T04:53:37;101435.06;;;-6.81;80.08
68433;BME280;55412;51.350;17.056;2024-01-11T04:56:03;101428.75;;;-6.66;80.00
68433;BME280;55412;51.350;17.056;2024-01-11T04:58:29;101438.72;;;-6.47;79.99
68433;BME280;55412;51.350;17.056;2024-01-11T05:00:54;101443.16;;;-6.34;79.96
68433;BME280;55412;51.350;17.056;2024-01-11T05:03:20;101435.81;;;-6.21;79.24
68433;BME280;55412;51.350;17.056;2024-01-11T05:05:46;101429.38;;;-6.07;79.67
68433;BME280;55412;51.350;17.056;2024-01-11T05:08:11;101432.13;;;-5.94;79.23
68433;BME280;55412;51.350;17.056;2024-01-11T05:10:37;101406.78;;;-5.84;79.48
68433;BME280;55412;51.350;17.056;2024-01-11T05:13:03;101402.22;;;-5.78;79.03
68433;BME280;55412;51.350;17.056;2024-01-11T05:15:29;101391.94;;;-5.69;79.43
68433;BME280;55412;51.350;17.056;2024-01-11T05:17:58;101385.13;;;-5.70;78.57
68433;BME280;55412;51.350;17.056;2024-01-11T05:20:24;101384.34;;;-5.69;78.43
68433;BME280;55412;51.350;17.056;2024-01-11T05:22:49;101396.88;;;-5.71;78.23
68433;BME280;55412;51.350;17.056;2024-01-11T05:25:15;101413.44;;;-5.74;77.96
68433;BME280;55412;51.350;17.056;2024-01-11T05:27:41;101412.31;;;-5.78;77.87
68433;BME280;55412;51.350;17.056;2024-01-11T05:30:07;101406.00;;;-5.83;77.82
68433;BME280;55412;51.350;17.056;2024-01-11T05:32:33;101420.06;;;-5.87;77.45
68433;BME280;55412;51.350;17.056;2024-01-11T05:34:58;101421.44;;;-5.90;77.67
68433;BME280;55412;51.350;17.056;2024-01-11T05:37:24;101414.28;;;-5.96;77.31
68433;BME280;55412;51.350;17.056;2024-01-11T05:39:50;101404.72;;;-6.00;77.40
68433;BME280;55412;51.350;17.056;2024-01-11T05:42:15;101407.63;;;-6.05;77.06
68433;BME280;55412;51.350;17.056;2024-01-11T05:44:41;101389.56;;;-6.10;76.85
68433;BME280;55412;51.350;17.056;2024-01-11T05:47:07;101373.66;;;-6.19;76.71
68433;BME280;55412;51.350;17.056;2024-01-11T05:49:32;101379.59;;;-6.19;77.05
68433;BME280;55412;51.350;17.056;2024-01-11T05:51:58;101367.34;;;-6.24;77.45
68433;BME280;55412;51.350;17.056;2024-01-11T05:54:24;101387.81;;;-6.21;76.94
68433;BME280;55412;51.350;17.056;2024-01-11T05:56:51;101373.31;;;-6.24;76.49
68433;BME280;55412;51.350;17.056;2024-01-11T05:59:21;101361.28;;;-6.26;76.65
68433;BME280;55412;51.350;17.056;2024-01-11T06:01:47;101363.06;;;-6.25;76.40
68433;BME280;55412;51.350;17.056;2024-01-11T06:04:13;101367.88;;;-6.28;75.94
68433;BME280;55412;51.350;17.056;2024-01-11T06:06:39;101370.91;;;-6.32;76.63
68433;BME280;55412;51.350;17.056;2024-01-11T06:09:05;101358.03;;;-6.35;76.60
68433;BME280;55412;51.350;17.056;2024-01-11T06:11:31;101374.84;;;-6.36;77.06
68433;BME280;55412;51.350;17.056;2024-01-11T06:13:57;101390.75;;;-6.37;76.32
68433;BME280;55412;51.350;17.056;2024-01-11T06:16:23;101377.09;;;-6.39;75.88
68433;BME280;55412;51.350;17.056;2024-01-11T06:18:49;101363.47;;;-6.41;76.39
68433;BME280;55412;51.350;17.056;2024-01-11T06:21:15;101364.22;;;-6.42;76.74
68433;BME280;55412;51.350;17.056;2024-01-11T06:23:43;101359.06;;;-6.44;76.18
68433;BME280;55412;51.350;17.056;2024-01-11T06:26:09;101372.81;;;-6.40;76.41
68433;BME280;55412;51.350;17.056;2024-01-11T06:28:35;101366.00;;;-6.41;76.34
68433;BME280;55412;51.350;17.056;2024-01-11T06:31:00;101361.94;;;-6.39;76.71
68433;BME280;55412;51.350;17.056;2024-01-11T06:33:26;101351.97;;;-6.37;76.29
68433;BME280;55412;51.350;17.056;2024-01-11T06:35:52;101355.28;;;-6.38;76.41
68433;BME280;55412;51.350;17.056;2024-01-11T06:38:18;101353.97;;;-6.33;76.36
68433;BME280;55412;51.350;17.056;2024-01-11T06:40:43;101355.00;;;-6.31;76.70
68433;BME280;55412;51.350;17.056;2024-01-11T06:43:09;101354.25;;;-6.30;76.23
68433;BME280;55412;51.350;17.056;2024-01-11T06:45:35;101351.19;;;-6.26;76.32
68433;BME280;55412;51.350;17.056;2024-01-11T06:48:01;101359.03;;;-6.23;76.19
68433;BME280;55412;51.350;17.056;2024-01-11T06:50:26;101357.50;;;-6.21;76.44
68433;BME280;55412;51.350;17.056;2024-01-11T06:52:52;101353.72;;;-6.16;76.42
68433;BME280;55412;51.350;17.056;2024-01-11T06:55:18;101321.97;;;-6.13;76.04
68433;BME280;55412;51.350;17.056;2024-01-11T06:57:47;101319.81;;;-6.08;75.56
68433;BME280;55412;51.350;17.056;2024-01-11T07:00:13;101306.53;;;-6.05;76.45
68433;BME280;55412;51.350;17.056;2024-01-11T07:02:39;101293.41;;;-6.01;75.76
68433;BME280;55412;51.350;17.056;2024-01-11T07:05:07;101305.59;;;-5.96;76.30
68433;BME280;55412;51.350;17.056;2024-01-11T07:07:33;101304.41;;;-5.89;75.37
68433;BME280;55412;51.350;17.056;2024-01-11T07:09:59;101306.78;;;-5.80;75.74
68433;BME280;55412;51.350;17.056;2024-01-11T07:12:25;101300.53;;;-5.74;75.34
68433;BME280;55412;51.350;17.056;2024-01-11T07:14:51;101307.63;;;-5.70;74.88
68433;BME280;55412;51.350;17.056;2024-01-11T07:17:17;101288.28;;;-5.69;74.69
68433;BME280;55412;51.350;17.056;2024-01-11T07:19:43;101274.47;;;-5.63;75.24
68433;BME280;55412;51.350;17.056;2024-01-11T07:22:08;101272.03;;;-5.61;75.01
68433;BME280;55412;51.350;17.056;2024-01-11T07:24:34;101270.16;;;-5.64;74.42
68433;BME280;55412;51.350;17.056;2024-01-11T07:27:06;101273.47;;;-5.65;74.36
68433;BME280;55412;51.350;17.056;2024-01-11T07:29:35;101274.47;;;-5.63;73.86
68433;BME280;55412;51.350;17.056;2024-01-11T07:32:01;101250.06;;;-5.62;73.84
68433;BME280;55412;51.350;17.056;2024-01-11T07:34:29;101268.22;;;-5.56;73.65
68433;BME280;55412;51.350;17.056;2024-01-11T07:36:55;101262.41;;;-5.55;73.61
68433;BME280;55412;51.350;17.056;2024-01-11T07:39:22;101269.22;;;-5.54;73.36
68433;BME280;55412;51.350;17.056;2024-01-11T07:41:48;101268.44;;;-5.53;72.77
68433;BME280;55412;51.350;17.056;2024-01-11T07:44:14;101294.31;;;-5.45;72.48
68433;BME280;55412;51.350;17.056;2024-01-11T07:46:39;101284.69;;;-5.39;72.86
68433;BME280;55412;51.350;17.056;2024-01-11T07:49:06;101280.09;;;-5.33;72.24
68433;BME280;55412;51.350;17.056;2024-01-11T07:51:32;101254.91;;;-5.32;72.05
68433;BME280;55412;51.350;17.056;2024-01-11T07:53:59;101260.00;;;-5.20;71.98
68433;BME280;55412;51.350;17.056;2024-01-11T07:56:25;101268.06;;;-5.14;72.08
68433;BME280;55412;51.350;17.056;2024-01-11T07:58:51;101277.72;;;-5.08;71.43
68433;BME280;55412;51.350;17.056;2024-01-11T08:01:17;101278.44;;;-4.99;71.17
68433;BME280;55412;51.350;17.056;2024-01-11T08:03:43;101285.06;;;-4.89;70.45
68433;BME280;55412;51.350;17.056;2024-01-11T08:06:10;101267.00;;;-4.82;70.78
68433;BME280;55412;51.350;17.056;2024-01-11T08:08:39;101278.91;;;-4.81;71.22
68433;BME280;55412;51.350;17.056;2024-01-11T08:11:08;101280.00;;;-4.78;70.67
68433;BME280;55412;51.350;17.056;2024-01-11T08:13:33;101286.19;;;-4.74;70.35
68433;BME280;55412;51.350;17.056;2024-01-11T08:16:04;101292.22;;;-4.72;70.32
68433;BME280;55412;51.350;17.056;2024-01-11T08:18:33;101310.06;;;-4.70;69.80
68433;BME280;55412;51.350;17.056;2024-01-11T08:20:59;101310.84;;;-4.72;69.50
68433;BME280;55412;51.350;17.056;2024-01-11T08:23:24;101298.31;;;-4.70;69.57
68433;BME280;55412;51.350;17.056;2024-01-11T08:25:50;101289.06;;;-4.69;69.55
68433;BME280;55412;51.350;17.056;2024-01-11T08:28:18;101282.97;;;-4.72;69.19
68433;BME280;55412;51.350;17.056;2024-01-11T08:30:44;101289.16;;;-4.68;69.14
68433;BME280;55412;51.350;17.056;2024-01-11T08:33:09;101297.75;;;-4.66;68.88
68433;BME280;55412;51.350;17.056;2024-01-11T08:35:35;101297.75;;;-4.66;69.40
68433;BME280;55412;51.350;17.056;2024-01-11T08:38:01;101299.19;;;-4.58;69.67
68433;BME280;55412;51.350;17.056;2024-01-11T08:40:28;101292.72;;;-4.54;68.82
68433;BME280;55412;51.350;17.056;2024-01-11T08:42:54;101313.28;;;-4.50;68.97
68433;BME280;55412;51.350;17.056;2024-01-11T08:45:20;101305.94;;;-4.47;68.72
68433;BME280;55412;51.350;17.056;2024-01-11T08:47:47;101316.53;;;-4.40;69.12
68433;BME280;55412;51.350;17.056;2024-01-11T08:50:14;101309.34;;;-4.34;69.04
68433;BME280;55412;51.350;17.056;2024-01-11T08:52:41;101308.22;;;-4.26;68.89
68433;BME280;55412;51.350;17.056;2024-01-11T08:55:07;101318.03;;;-4.19;68.40
68433;BME280;55412;51.350;17.056;2024-01-11T08:57:33;101320.03;;;-4.15;68.63
68433;BME280;55412;51.350;17.056;2024-01-11T09:00:01;101308.44;;;-4.11;68.54
68433;BME280;55412;51.350;17.056;2024-01-11T09:02:27;101312.31;;;-4.05;68.05
68433;BME280;55412;51.350;17.056;2024-01-11T09:04:53;101316.06;;;-4.00;68.02
68433;BME280;55412;51.350;17.056;2024-01-11T09:07:19;101300.41;;;-3.94;67.89
68433;BME280;55412;51.350;17.056;2024-01-11T09:09:44;101303.91;;;-3.92;67.70
68433;BME280;55412;51.350;17.056;2024-01-11T09:12:11;101307.78;;;-3.85;67.27
68433;BME280;55412;51.350;17.056;2024-01-11T09:14:37;101288.25;;;-3.86;66.66
68433;BME280;55412;51.350;17.056;2024-01-11T09:17:02;101308.66;;;-3.85;66.69
68433;BME280;55412;51.350;17.056;2024-01-11T09:19:32;101306.66;;;-3.77;67.07
68433;BME280;55412;51.350;17.056;2024-01-11T09:21:59;101318.09;;;-3.71;66.91
68433;BME280;55412;51.350;17.056;2024-01-11T09:24:25;101297.47;;;-3.64;66.83
68433;BME280;55412;51.350;17.056;2024-01-11T09:26:51;101295.13;;;-3.61;66.43
68433;BME280;55412;51.350;17.056;2024-01-11T09:29:16;101296.00;;;-3.60;66.49
68433;BME280;55412;51.350;17.056;2024-01-11T09:31:42;101288.63;;;-3.57;66.64
68433;BME280;55412;51.350;17.056;2024-01-11T09:34:08;101297.31;;;-3.53;66.87
68433;BME280;55412;51.350;17.056;2024-01-11T09:36:34;101290.81;;;-3.50;66.27
68433;BME280;55412;51.350;17.056;2024-01-11T09:39:00;101301.50;;;-3.42;66.65
68433;BME280;55412;51.350;17.056;2024-01-11T09:41:26;101300.03;;;-3.39;66.58
68433;BME280;55412;51.350;17.056;2024-01-11T09:43:54;101305.44;;;-3.34;66.53
68433;BME280;55412;51.350;17.056;2024-01-11T09:46:20;101301.66;;;-3.27;65.75
68433;BME280;55412;51.350;17.056;2024-01-11T09:48:46;101288.38;;;-3.23;65.87
68433;BME280;55412;51.350;17.056;2024-01-11T09:51:13;101271.59;;;-3.21;65.46
68433;BME280;55412;51.350;17.056;2024-01-11T09:53:40;101275.91;;;-3.20;65.29
68433;BME280;55412;51.350;17.056;2024-01-11T09:56:08;101274.44;;;-3.17;65.32
68433;BME280;55412;51.350;17.056;2024-01-11T09:58:35;101274.44;;;-3.17;65.28
68433;BME280;55412;51.350;17.056;2024-01-11T10:01:09;101270.47;;;-3.13;65.34
68433;BME280;55412;51.350;17.056;2024-01-11T10:03:35;101275.72;;;-3.10;64.73
68433;BME280;55412;51.350;17.056;2024-01-11T10:06:01;101265.66;;;-3.09;65.31
68433;BME280;55412;51.350;17.056;2024-01-11T10:08:27;101260.03;;;-3.04;64.65
68433;BME280;55412;51.350;17.056;2024-01-11T10:10:55;101249.19;;;-3.02;64.28
68433;BME280;55412;51.350;17.056;2024-01-11T10:13:27;101260.44;;;-2.98;65.19
68433;BME280;55412;51.350;17.056;2024-01-11T10:16:05;101254.50;;;-2.99;64.95
68433;BME280;55412;51.350;17.056;2024-01-11T10:18:30;101244.31;;;-2.99;64.77
68433;BME280;55412;51.350;17.056;2024-01-11T10:20:57;101246.41;;;-2.93;64.72
68433;BME280;55412;51.350;17.056;2024-01-11T10:23:23;101245.72;;;-2.91;65.11
68433;BME280;55412;51.350;17.056;2024-01-11T10:25:49;101256.06;;;-2.88;64.56
68433;BME280;55412;51.350;17.056;2024-01-11T10:28:15;101258.22;;;-2.81;65.12
68433;BME280;55412;51.350;17.056;2024-01-11T10:30:45;101257.66;;;-2.76;64.69
68433;BME280;55412;51.350;17.056;2024-01-11T10:33:11;101264.81;;;-2.71;64.99
68433;BME280;55412;51.350;17.056;2024-01-11T10:35:37;101264.19;;;-2.67;64.66
68433;BME280;55412;51.350;17.056;2024-01-11T10:38:09;101262.63;;;-2.65;64.70
68433;BME280;55412;51.350;17.056;2024-01-11T10:40:35;101267.25;;;-2.59;64.70
68433;BME280;55412;51.350;17.056;2024-01-11T10:43:01;101263.91;;;-2.58;65.08
68433;BME280;55412;51.350;17.056;2024-01-11T10:45:28;101252.88;;;-2.59;64.56
68433;BME280;55412;51.350;17.056;2024-01-11T10:47:56;101248.47;;;-2.61;65.34
68433;BME280;55412;51.350;17.056;2024-01-11T10:50:30;101232.16;;;-2.78;65.19
68433;BME280;55412;51.350;17.056;2024-01-11T10:53:04;101242.69;;;-2.72;65.20
68433;BME280;55412;51.350;17.056;2024-01-11T10:55:34;101254.31;;;-2.75;65.28
68433;BME280;55412;51.350;17.056;2024-01-11T10:58:01;101252.56;;;-2.76;65.35
68433;BME280;55412;51.350;17.056;2024-01-11T11:00:28;101258.06;;;-2.70;65.25
68433;BME280;55412;51.350;17.056;2024-01-11T11:02:55;101257.16;;;-2.58;65.46
68433;BME280;55412;51.350;17.056;2024-01-11T11:05:21;101256.22;;;-2.46;65.23
68433;BME280;55412;51.350;17.056;2024-01-11T11:07:49;101255.81;;;-2.39;65.03
68433;BME280;55412;51.350;17.056;2024-01-11T11:10:17;101254.06;;;-2.27;64.94
68433;BME280;55412;51.350;17.056;2024-01-11T11:12:45;101248.47;;;-2.22;64.76
68433;BME280;55412;51.350;17.056;2024-01-11T11:15:12;101252.28;;;-2.15;64.65
68433;BME280;55412;51.350;17.056;2024-01-11T11:17:40;101254.63;;;-2.05;64.77
68433;BME280;55412;51.350;17.056;2024-01-11T11:20:10;101255.00;;;-1.99;64.71
68433;BME280;55412;51.350;17.056;2024-01-11T11:22:42;101260.28;;;-1.96;64.46
68433;BME280;55412;51.350;17.056;2024-01-11T11:25:24;101247.47;;;-1.97;64.50
68433;BME280;55412;51.350;17.056;2024-01-11T11:27:50;101248.63;;;-1.92;64.54
68433;BME280;55412;51.350;17.056;2024-01-11T11:30:19;101240.97;;;-1.92;64.54
68433;BME280;55412;51.350;17.056;2024-01-11T11:32:45;101231.34;;;-1.98;64.27
68433;BME280;55412;51.350;17.056;2024-01-11T11:35:11;101234.75;;;-1.97;64.31
68433;BME280;55412;51.350;17.056;2024-01-11T11:37:38;101233.97;;;-1.96;64.47
68433;BME280;55412;51.350;17.056;2024-01-11T11:40:13;101238.09;;;-1.98;64.45
68433;BME280;55412;51.350;17.056;2024-01-11T11:42:39;101221.34;;;-1.95;64.56
68433;BME280;55412;51.350;17.056;2024-01-11T11:45:07;101222.31;;;-1.92;64.56
68433;BME280;55412;51.350;17.056;2024-01-11T11:47:36;101216.25;;;-1.95;64.58
68433;BME280;55412;51.350;17.056;2024-01-11T11:50:09;101214.97;;;-1.88;64.44
68433;BME280;55412;51.350;17.056;2024-01-11T11:52:39;101219.44;;;-1.84;65.04
68433;BME280;55412;51.350;17.056;2024-01-11T11:55:09;101205.75;;;-1.86;64.93
68433;BME280;55412;51.350;17.056;2024-01-11T11:57:35;101210.34;;;-1.80;64.82
68433;BME280;55412;51.350;17.056;2024-01-11T12:00:08;101206.84;;;-1.82;65.18
68433;BME280;55412;51.350;17.056;2024-01-11T12:02:56;101200.19;;;-1.93;64.89
68433;BME280;55412;51.350;17.056;2024-01-11T12:05:23;101220.94;;;-1.87;65.16
68433;BME280;55412;51.350;17.056;2024-01-11T12:07:48;101221.72;;;-1.88;65.41
68433;BME280;55412;51.350;17.056;2024-01-11T12:10:14;101212.13;;;-1.92;65.32
68433;BME280;55412;51.350;17.056;2024-01-11T12:12:40;101220.63;;;-1.92;65.99
68433;BME280;55412;51.350;17.056;2024-01-11T12:15:06;101216.25;;;-1.95;65.91
68433;BME280;55412;51.350;17.056;2024-01-11T12:17:33;101205.59;;;-2.02;66.00
68433;BME280;55412;51.350;17.056;2024-01-11T12:19:58;101217.34;;;-2.04;66.04
68433;BME280;55412;51.350;17.056;2024-01-11T12:22:24;101210.22;;;-2.10;66.20
68433;BME280;55412;51.350;17.056;2024-01-11T12:24:50;101218.25;;;-2.17;66.33
68433;BME280;55412;51.350;17.056;2024-01-11T12:27:16;101234.09;;;-2.21;66.96
68433;BME280;55412;51.350;17.056;2024-01-11T12:29:42;101226.09;;;-2.27;66.98
68433;BME280;55412;51.350;17.056;2024-01-11T12:32:08;101225.88;;;-2.30;67.25
68433;BME280;55412;51.350;17.056;2024-01-11T12:34:37;101226.59;;;-2.33;67.30